Time;durP1;ratioP1;P1;durP2;ratioP2;P2;SDS_P1;SDS_P2;PMS_P1;PMS_P2;Temp;Humidity;BMP_temperature;BMP_pressure;BME280_temperature;BME280_humidity;BME280_pressure;Samples;Min_cycle;Max_cycle;Signal;HPM_P1;HPM_P2
2022/04/30 00:02:13;;;;;;;9.80;3.80;;;;;;;5.67;68.97;99639.32;105112;1271;61140;-26
2022/04/30 00:04:45;;;;;;;6.90;2.90;;;;;;;5.49;68.98;99642.80;104977;1271;61658;-26
2022/04/30 00:07:17;;;;;;;4.20;2.40;;;;;;;5.35;69.02;99636.63;104829;1271;75489;-26
2022/04/30 00:09:46;;;;;;;3.20;1.90;;;;;;;5.29;69.76;99632.65;105033;1271;76168;-26
2022/04/30 00:12:18;;;;;;;4.10;2.30;;;;;;;5.85;69.46;99634.94;105120;1271;74565;-26
2022/04/30 00:14:46;;;;;;;4.70;2.70;;;;;;;6.50;67.14;99634.27;105145;1271;62915;-26
2022/04/30 00:17:15;;;;;;;4.40;2.50;;;;;;;6.65;66.18;99635.33;105283;1271;61930;-26
2022/04/30 00:19:42;;;;;;;4.60;2.60;;;;;;;6.51;66.08;99633.73;104959;1271;75514;-26
2022/04/30 00:22:09;;;;;;;4.70;2.80;;;;;;;6.31;66.16;99630.51;104915;1271;75965;-26
2022/04/30 00:24:38;;;;;;;5.50;3.10;;;;;;;6.12;66.50;99631.51;104988;1274;75714;-26
2022/04/30 00:27:05;;;;;;;7.50;2.70;;;;;;;5.91;67.02;99629.83;105097;1272;62048;-26
2022/04/30 00:29:33;;;;;;;4.20;2.50;;;;;;;5.69;67.19;99629.25;105272;1271;61126;-26
2022/04/30 00:32:03;;;;;;;6.90;2.70;;;;;;;5.50;67.58;99629.34;105234;1271;75586;-26
2022/04/30 00:34:31;;;;;;;4.30;2.40;;;;;;;5.34;67.74;99630.13;104825;1274;75942;-26
2022/04/30 00:37:02;;;;;;;5.20;2.70;;;;;;;5.17;68.02;99626.32;104838;1272;73255;-26
2022/04/30 00:39:31;;;;;;;4.70;2.40;;;;;;;4.97;68.64;99627.15;104853;1272;61131;-26
2022/04/30 00:41:59;;;;;;;4.70;2.20;;;;;;;4.80;68.95;99628.29;105014;1271;63259;-27
2022/04/30 00:44:27;;;;;;;3.30;1.60;;;;;;;4.70;69.44;99623.98;104896;1271;75555;-26
2022/04/30 00:46:55;;;;;;;6.10;2.00;;;;;;;5.21;69.19;99620.64;105265;1271;76151;-26
2022/04/30 00:49:22;;;;;;;5.70;2.40;;;;;;;5.89;67.33;99620.27;104970;1271;74255;-26
2022/04/30 00:51:52;;;;;;;4.80;2.20;;;;;;;6.05;66.14;99619.11;104950;1271;60981;-26
2022/04/30 00:54:22;;;;;;;4.60;2.20;;;;;;;5.93;66.09;99615.41;104910;1271;61033;-26
2022/04/30 00:56:57;;;;;;;4.60;2.30;;;;;;;5.71;66.34;99615.52;105079;1271;75742;-26
2022/04/30 00:59:24;;;;;;;5.30;2.60;;;;;;;5.47;66.77;99617.25;105053;1271;75922;-26
2022/04/30 01:01:59;;;;;;;3.20;2.10;;;;;;;5.26;67.10;99620.20;105107;1271;74224;-26
2022/04/30 01:04:45;;;;;;;3.70;2.10;;;;;;;5.04;67.78;99621.12;105238;1271;61142;-26
2022/04/30 01:07:13;;;;;;;4.10;2.40;;;;;;;4.83;68.36;99624.38;105260;1270;61022;-26
2022/04/30 01:09:42;;;;;;;4.00;2.40;;;;;;;4.60;68.91;99621.99;105305;1271;75290;-26
2022/04/30 01:12:10;;;;;;;3.60;2.30;;;;;;;4.40;69.63;99616.93;104853;1271;75783;-28
2022/04/30 01:14:42;;;;;;;3.30;2.20;;;;;;;4.24;70.43;99621.61;104987;1272;74261;-28
2022/04/30 01:17:10;;;;;;;3.60;2.30;;;;;;;4.68;70.84;99619.57;105112;1271;61170;-25
2022/04/30 01:19:43;;;;;;;6.00;2.70;;;;;;;5.27;69.54;99618.59;105089;1271;61133;-27
2022/04/30 01:22:38;;;;;;;5.00;2.40;;;;;;;5.32;68.82;99620.95;105132;1274;75629;-27
2022/04/30 01:25:06;;;;;;;3.40;2.30;;;;;;;5.04;69.00;99620.74;105063;1271;75960;-27
2022/04/30 01:27:33;;;;;;;7.70;3.50;;;;;;;4.77;69.28;99618.63;104772;1274;74372;-27
2022/04/30 01:30:04;;;;;;;3.70;2.40;;;;;;;4.49;69.77;99621.16;104741;1274;61030;-27
2022/04/30 01:38:04;;;;;;;3.70;2.20;;;;;;;3.82;71.51;99613.35;104847;1271;76085;-26
2022/04/30 01:40:31;;;;;;;2.60;1.50;;;;;;;3.67;72.02;99615.20;104964;1271;74581;-26
2022/04/30 01:43:01;;;;;;;2.30;1.70;;;;;;;4.11;72.01;99610.68;104970;1271;61057;-26
2022/04/30 01:45:28;;;;;;;4.00;2.30;;;;;;;4.79;69.87;99608.58;104746;1274;62091;-26
2022/04/30 01:47:57;;;;;;;2.50;1.60;;;;;;;4.92;69.42;99609.30;104972;1271;75656;-27
2022/04/30 01:50:26;;;;;;;6.40;2.60;;;;;;;4.78;69.39;99610.86;104975;1271;75080;-26
2022/04/30 01:52:53;;;;;;;6.00;2.50;;;;;;;4.55;69.89;99606.63;104966;1271;74467;-26
2022/04/30 01:55:20;;;;;;;5.90;2.70;;;;;;;4.30;70.43;99607.59;104956;1271;61195;-26
2022/04/30 01:57:50;;;;;;;7.10;2.70;;;;;;;4.05;71.26;99609.45;104971;1270;61157;-26
2022/04/30 02:00:20;;;;;;;3.30;2.10;;;;;;;3.84;71.74;99610.20;104917;1271;75398;-26
2022/04/30 02:02:49;;;;;;;4.00;2.40;;;;;;;3.67;71.75;99606.14;105007;1270;76002;-26
2022/04/30 02:05:18;;;;;;;4.50;1.50;;;;;;;3.54;72.19;99607.36;104729;1272;73301;-26
2022/04/30 02:08:10;;;;;;;3.00;1.80;;;;;;;3.99;72.80;99603.33;104999;1271;61060;-26
2022/04/30 02:10:44;;;;;;;4.30;2.70;;;;;;;4.67;71.16;99604.48;104920;1271;61115;-26
2022/04/30 02:13:11;;;;;;;3.50;2.00;;;;;;;4.70;70.69;99605.06;104653;1271;75565;-26
2022/04/30 02:15:41;;;;;;;3.10;2.20;;;;;;;4.54;70.55;99604.73;104874;1272;75992;-26
2022/04/30 02:18:15;;;;;;;4.00;2.30;;;;;;;4.30;71.11;99603.48;104657;1271;74356;-26
2022/04/30 02:20:44;;;;;;;6.10;2.70;;;;;;;3.94;72.39;99603.21;104721;1271;61145;-26
2022/04/30 02:23:11;;;;;;;3.50;2.20;;;;;;;3.59;73.70;99603.91;104738;1272;61087;-26
2022/04/30 02:25:38;;;;;;;2.90;2.20;;;;;;;3.33;74.02;99605.01;104981;1272;75489;-26
2022/04/30 02:28:08;;;;;;;5.90;3.00;;;;;;;3.07;74.83;99601.77;105070;1271;75808;-26
2022/04/30 02:30:37;;;;;;;2.80;1.80;;;;;;;2.75;77.48;99609.94;104833;1272;74954;-26
2022/04/30 02:33:06;;;;;;;3.40;2.40;;;;;;;3.16;76.40;99609.64;104816;1271;61142;-26
2022/04/30 02:35:38;;;;;;;4.20;2.20;;;;;;;3.76;74.81;99609.52;104793;1271;61124;-26
2022/04/30 02:38:08;;;;;;;2.70;1.90;;;;;;;3.83;73.32;99607.13;104775;1271;75551;-26
2022/04/30 02:40:36;;;;;;;4.50;2.40;;;;;;;3.61;72.88;99601.92;104633;1274;75763;-26
2022/04/30 02:43:06;;;;;;;8.00;2.50;;;;;;;3.32;73.09;99602.14;104640;1271;74676;-26
2022/04/30 02:45:36;;;;;;;4.50;2.20;;;;;;;3.04;73.78;99603.30;104921;1272;61191;-26
2022/04/30 02:48:06;;;;;;;5.90;2.80;;;;;;;2.78;74.61;99601.27;104942;1272;62155;-26
2022/04/30 02:50:34;;;;;;;4.20;2.10;;;;;;;2.55;75.03;99603.73;104941;1272;74272;-26
2022/04/30 02:53:01;;;;;;;4.70;1.80;;;;;;;2.38;75.86;99608.30;104866;1271;75987;-26
2022/04/30 02:55:28;;;;;;;4.90;2.20;;;;;;;2.80;76.22;99606.48;104895;1271;74451;-26
2022/04/30 03:00:51;;;;;;;5.70;2.30;;;;;;;3.57;73.62;99605.34;104878;1271;61046;-26
2022/04/30 03:03:20;;;;;;;4.10;2.50;;;;;;;3.51;73.56;99605.60;104779;1271;75628;-26
2022/04/30 03:05:50;;;;;;;3.10;2.00;;;;;;;3.39;73.72;99604.40;104889;1274;76023;-26
2022/04/30 03:08:20;;;;;;;5.50;3.00;;;;;;;3.23;73.65;99605.95;104834;1271;74503;-26
2022/04/30 03:10:48;;;;;;;2.90;2.20;;;;;;;3.05;74.13;99606.34;104845;1272;61206;-26
2022/04/30 03:13:18;;;;;;;6.20;2.40;;;;;;;2.84;74.38;99607.87;104762;1271;61242;-27
2022/04/30 03:15:51;;;;;;;2.90;1.70;;;;;;;2.71;75.32;99607.54;104813;1271;75643;-26
2022/04/30 03:23:47;;;;;;;7.00;2.90;;;;;;;4.45;70.33;99616.19;105232;1271;61146;-26
2022/04/30 03:26:17;;;;;;;7.50;3.00;;;;;;;4.43;70.30;99617.11;104979;1271;61208;-26
2022/04/30 03:28:46;;;;;;;5.20;2.90;;;;;;;4.41;70.21;99612.92;104820;1274;75469;-26
2022/04/30 03:31:16;;;;;;;5.30;3.10;;;;;;;4.40;70.25;99617.83;104939;1271;75894;-26
2022/04/30 03:33:47;;;;;;;7.10;2.50;;;;;;;4.31;70.47;99620.27;105308;1271;74228;-26
2022/04/30 03:36:15;;;;;;;3.70;2.50;;;;;;;4.26;70.94;99617.92;105130;1271;61163;-26
2022/04/30 03:38:43;;;;;;;5.40;2.10;;;;;;;4.27;71.20;99622.68;105300;1271;61152;-26
2022/04/30 03:41:10;;;;;;;4.80;1.90;;;;;;;4.89;70.12;99623.88;105337;1271;75414;-26
2022/04/30 03:43:39;;;;;;;3.90;2.50;;;;;;;5.77;67.45;99624.67;105031;1274;74901;-26
2022/04/30 03:46:06;;;;;;;5.10;2.20;;;;;;;6.16;66.25;99628.17;104797;1271;74382;-25
2022/04/30 03:48:33;;;;;;;5.40;2.20;;;;;;;6.31;65.70;99628.60;104884;1271;62010;-26
2022/04/30 03:51:01;;;;;;;3.50;2.00;;;;;;;6.35;65.53;99627.54;104864;1271;62003;-26
2022/04/30 03:53:28;;;;;;;3.70;2.30;;;;;;;6.34;65.80;99630.81;104922;1271;75475;-26
2022/04/30 03:55:57;;;;;;;3.60;1.70;;;;;;;6.34;66.02;99631.51;104760;1272;76021;-26
2022/04/30 03:58:24;;;;;;;2.70;1.90;;;;;;;6.33;66.26;99631.09;104858;1274;75997;-26
2022/04/30 04:00:53;;;;;;;6.20;2.20;;;;;;;6.33;66.72;99633.16;104852;1271;61132;-26
2022/04/30 04:03:21;;;;;;;4.50;2.40;;;;;;;6.27;66.84;99632.23;104886;1271;61111;-27
2022/04/30 04:05:49;;;;;;;4.70;2.20;;;;;;;6.25;67.30;99630.64;104813;1271;75398;-26
2022/04/30 04:08:16;;;;;;;5.00;2.40;;;;;;;6.15;67.68;99635.32;105012;1270;75746;-26
2022/04/30 04:10:43;;;;;;;6.20;3.00;;;;;;;6.13;67.86;99638.20;104813;1274;74527;-27
2022/04/30 04:18:43;;;;;;;2.80;1.60;;;;;;;7.18;64.93;99636.17;104755;1271;75522;-26
2022/04/30 04:21:11;;;;;;;3.80;1.90;;;;;;;7.97;61.91;99636.02;104928;1271;76139;-26
2022/04/30 04:26:24;;;;;;;7.10;4.00;;;;;;;8.31;57.26;99637.40;105075;1274;61122;-26
2022/04/30 04:28:51;;;;;;;6.50;3.50;;;;;;;8.26;57.63;99641.36;104970;1271;61019;-26
2022/04/30 04:31:22;;;;;;;7.60;3.70;;;;;;;8.18;57.91;99643.56;104658;1271;432468;-26
2022/04/30 04:33:50;;;;;;;6.90;3.30;;;;;;;8.27;58.97;99645.63;104798;1272;75995;-26
2022/04/30 04:36:17;;;;;;;3.50;2.10;;;;;;;8.31;58.22;99644.50;104809;1274;74305;-26
2022/04/30 04:38:44;;;;;;;5.40;2.30;;;;;;;8.14;57.90;99644.16;104685;1271;62260;-27
2022/04/30 04:41:12;;;;;;;5.20;2.80;;;;;;;8.14;58.19;99646.59;104754;1274;61101;-25
2022/04/30 04:43:41;;;;;;;3.40;2.40;;;;;;;8.21;57.60;99646.13;104945;1271;75319;-26
2022/04/30 04:46:08;;;;;;;3.60;2.80;;;;;;;8.27;57.05;99651.45;104985;1271;75816;-26
2022/04/30 04:48:36;;;;;;;6.30;3.40;;;;;;;8.40;56.42;99651.66;104968;1271;74294;-26
2022/04/30 04:51:03;;;;;;;8.10;3.00;;;;;;;8.59;55.82;99648.31;104852;1274;61137;-25
2022/04/30 04:53:30;;;;;;;4.90;2.40;;;;;;;8.64;56.25;99649.74;104896;1271;61075;-26
2022/04/30 04:55:57;;;;;;;8.30;2.60;;;;;;;8.68;55.55;99647.19;104937;1271;75405;-26
2022/04/30 04:58:24;;;;;;;6.50;2.60;;;;;;;8.82;55.33;99652.18;104731;1272;75976;-25
2022/04/30 05:00:52;;;;;;;6.00;3.30;;;;;;;8.95;53.97;99652.59;104930;1271;74543;-26
2022/04/30 05:03:20;;;;;;;7.90;2.90;;;;;;;8.96;52.94;99650.64;104931;1271;61157;-25
2022/04/30 05:05:47;;;;;;;8.40;2.90;;;;;;;8.91;53.38;99650.81;104975;1270;61075;-25
2022/04/30 05:08:14;;;;;;;12.70;3.00;;;;;;;9.04;53.96;99652.50;104931;1271;75561;-26
2022/04/30 05:10:41;;;;;;;5.60;3.20;;;;;;;9.23;53.03;99651.80;104743;1272;77616;-26
2022/04/30 05:13:08;;;;;;;7.90;3.20;;;;;;;9.38;52.77;99654.33;104987;1271;75764;-25
2022/04/30 05:15:36;;;;;;;8.90;3.30;;;;;;;9.46;51.88;99653.41;104966;1271;60944;-25
2022/04/30 05:18:05;;;;;;;5.30;2.60;;;;;;;9.64;52.16;99654.48;104918;1271;61131;-25
2022/04/30 05:20:35;;;;;;;4.40;2.70;;;;;;;9.61;50.98;99652.95;104813;1274;74115;-25
2022/04/30 05:23:10;;;;;;;5.70;2.50;;;;;;;9.85;51.69;99652.02;104778;1271;76166;-25
2022/04/30 05:25:40;;;;;;;6.00;2.70;;;;;;;9.90;50.66;99647.48;104991;1271;74383;-25
2022/04/30 05:28:08;;;;;;;6.20;2.80;;;;;;;10.09;50.24;99648.29;104899;1271;61144;-25
2022/04/30 05:30:37;;;;;;;5.60;2.30;;;;;;;9.84;50.29;99648.27;105066;1271;61071;-25
2022/04/30 05:33:04;;;;;;;5.70;3.20;;;;;;;10.21;50.24;99651.59;105144;1271;75574;-25
2022/04/30 05:35:32;;;;;;;3.20;2.00;;;;;;;10.31;49.98;99654.21;104982;1271;74974;-25
2022/04/30 05:37:59;;;;;;;3.70;2.20;;;;;;;10.24;47.85;99654.35;104891;1271;74448;-25
2022/04/30 05:40:26;;;;;;;4.50;2.10;;;;;;;10.55;47.84;99657.22;104928;1271;61123;-24
2022/04/30 05:42:54;;;;;;;4.40;2.30;;;;;;;10.73;48.06;99655.98;104987;1271;61129;-24
2022/04/30 05:45:20;;;;;;;4.30;2.50;;;;;;;10.91;45.66;99653.27;104909;1271;75478;-26
2022/04/30 05:47:48;;;;;;;3.90;2.20;;;;;;;10.91;45.92;99652.77;104928;1271;76012;-23
2022/04/30 05:50:15;;;;;;;6.50;2.00;;;;;;;11.11;45.17;99653.23;104819;1274;74288;-24
2022/04/30 05:52:43;;;;;;;5.80;1.80;;;;;;;11.27;45.02;99652.89;104974;1271;61131;-24
2022/04/30 05:55:10;;;;;;;3.10;1.80;;;;;;;11.50;44.37;99648.58;104927;1271;60984;-24
2022/04/30 05:57:37;;;;;;;2.90;1.60;;;;;;;11.46;44.08;99649.73;104977;1271;75428;-24
2022/04/30 06:00:04;;;;;;;3.40;2.00;;;;;;;11.75;43.38;99652.05;104956;1271;75943;-26
2022/04/30 06:02:32;;;;;;;8.30;3.80;;;;;;;11.75;41.54;99652.98;104902;1273;74413;-26
2022/04/30 06:04:59;;;;;;;7.20;3.90;;;;;;;11.68;41.05;99651.91;105089;1271;61014;-27
2022/04/30 06:07:26;;;;;;;3.80;2.50;;;;;;;11.83;41.01;99652.92;105031;1271;61105;-26
2022/04/30 06:09:53;;;;;;;6.20;1.80;;;;;;;12.00;40.03;99655.70;104680;1274;75417;-28
2022/04/30 06:12:21;;;;;;;11.50;6.90;;;;;;;11.86;39.89;99655.64;104812;1274;77455;-29
2022/04/30 06:14:49;;;;;;;6.20;2.20;;;;;;;12.09;39.97;99659.77;104903;1274;74454;-28
2022/04/30 06:17:16;;;;;;;13.00;7.10;;;;;;;11.87;39.62;99656.91;104993;1271;61146;-26
2022/04/30 06:19:43;;;;;;;6.60;3.20;;;;;;;12.20;39.54;99662.41;105035;1271;61837;-28
2022/04/30 06:22:11;;;;;;;15.90;8.20;;;;;;;12.30;39.83;99664.05;104950;1271;75970;-27
2022/04/30 06:24:38;;;;;;;3.70;2.40;;;;;;;12.43;38.40;99664.77;104866;1274;75036;-27
2022/04/30 06:27:06;;;;;;;3.50;2.00;;;;;;;12.34;37.18;99663.25;104972;1271;73435;-28
2022/04/30 06:29:33;;;;;;;12.90;9.10;;;;;;;12.49;37.65;99665.02;105069;1271;61131;-28
2022/04/30 06:32:02;;;;;;;9.80;5.40;;;;;;;12.44;37.70;99666.13;105008;1271;61839;-27
2022/04/30 06:34:29;;;;;;;2.80;1.60;;;;;;;12.57;37.86;99664.88;104707;1274;74426;-27
2022/04/30 06:36:56;;;;;;;4.30;1.80;;;;;;;12.42;37.82;99666.11;104842;1271;75881;-27
2022/04/30 06:39:23;;;;;;;2.40;1.50;;;;;;;12.31;38.71;99664.83;104787;1274;74558;-27
2022/04/30 06:41:50;;;;;;;15.90;5.20;;;;;;;12.80;37.86;99664.14;104924;1274;61080;-27
2022/04/30 06:44:17;;;;;;;6.60;3.50;;;;;;;12.94;38.36;99659.70;104759;1274;61191;-27
2022/04/30 06:46:46;;;;;;;1.80;1.20;;;;;;;12.84;38.28;99662.76;104762;1274;75201;-27
2022/04/30 06:49:13;;;;;;;7.50;3.50;;;;;;;12.68;38.27;99655.99;104866;1271;74981;-26
2022/04/30 06:51:40;;;;;;;11.20;6.30;;;;;;;13.08;38.31;99659.02;104919;1271;73547;-25
2022/04/30 06:57:11;;;;;;;2.60;1.90;;;;;;;12.85;37.46;99655.64;104780;1271;61930;-27
2022/04/30 06:59:41;;;;;;;5.90;3.30;;;;;;;12.76;36.83;99661.42;104967;1271;75482;-26
2022/04/30 07:02:13;;;;;;;14.10;5.90;;;;;;;12.79;37.19;99662.77;104827;1271;76014;-29
2022/04/30 07:04:49;;;;;;;4.00;1.80;;;;;;;13.11;37.04;99662.63;104768;1271;74288;-26
2022/04/30 07:07:16;;;;;;;4.90;2.60;;;;;;;13.59;36.83;99665.30;104770;1271;61068;-27
2022/04/30 07:09:43;;;;;;;6.90;4.70;;;;;;;13.69;36.47;99667.30;105019;1271;61062;-28
2022/04/30 07:12:17;;;;;;;5.60;2.20;;;;;;;13.42;37.40;99666.58;105140;1271;74301;-28
2022/04/30 07:14:45;;;;;;;3.70;1.40;;;;;;;13.38;35.00;99666.02;105218;1271;76023;-28
2022/04/30 07:17:14;;;;;;;2.30;1.10;;;;;;;13.63;33.87;99666.07;105171;1274;74409;-28
2022/04/30 07:19:42;;;;;;;3.40;1.50;;;;;;;13.38;33.54;99663.60;104824;1271;61999;-28
2022/04/30 07:22:09;;;;;;;5.40;3.00;;;;;;;13.19;33.77;99663.41;105059;1271;61095;-26
2022/04/30 07:24:37;;;;;;;2.90;1.60;;;;;;;13.71;34.53;99667.70;104971;1271;75562;-26
2022/04/30 07:27:54;;;;;;;3.70;1.50;;;;;;;14.20;33.49;99661.20;104911;1271;76103;-26
2022/04/30 07:30:21;;;;;;;10.40;3.10;;;;;;;14.13;33.59;99659.06;104962;1271;74789;-27
2022/04/30 07:32:48;;;;;;;5.90;1.30;;;;;;;14.01;33.25;99660.20;104910;1271;61138;-27
2022/04/30 07:35:15;;;;;;;6.70;2.10;;;;;;;14.40;32.82;99662.67;105105;1271;61819;-27
2022/04/30 07:37:43;;;;;;;4.20;2.10;;;;;;;14.50;31.38;99658.45;104866;1271;74378;-27
2022/04/30 07:40:11;;;;;;;3.60;1.50;;;;;;;14.35;31.74;99654.67;104968;1271;75886;-27
2022/04/30 07:42:39;;;;;;;8.40;1.40;;;;;;;14.25;33.40;99655.34;104633;1271;72319;-27
2022/04/30 07:45:06;;;;;;;2.90;1.20;;;;;;;14.21;32.61;99656.92;104940;1271;61173;-27
2022/04/30 07:47:34;;;;;;;1.80;0.80;;;;;;;14.26;32.46;99660.68;104922;1270;61061;-25
2022/04/30 07:50:02;;;;;;;1.10;0.90;;;;;;;14.59;31.07;99661.88;104986;1271;75277;-25
2022/04/30 07:52:29;;;;;;;3.20;1.10;;;;;;;15.11;30.15;99659.93;104932;1271;75953;-27
2022/04/30 07:54:56;;;;;;;2.60;1.10;;;;;;;15.11;30.24;99660.59;104889;1271;74415;-25
2022/04/30 07:57:24;;;;;;;2.50;1.40;;;;;;;14.54;31.30;99655.50;104844;1271;61116;-27
2022/04/30 07:59:51;;;;;;;3.40;1.00;;;;;;;14.32;31.31;99653.16;104960;1271;61878;-25
2022/04/30 08:02:18;;;;;;;2.40;1.00;;;;;;;14.60;31.54;99655.36;104884;1271;75544;-25
2022/04/30 08:04:46;;;;;;;2.30;1.00;;;;;;;15.01;30.44;99659.41;104992;1270;75795;-25
2022/04/30 08:07:14;;;;;;;3.60;1.00;;;;;;;15.14;29.27;99659.58;104899;1271;74213;-25
2022/04/30 08:09:45;;;;;;;3.90;1.00;;;;;;;15.69;29.79;99658.48;104968;1271;61982;-25
2022/04/30 08:12:13;;;;;;;1.40;1.00;;;;;;;14.78;29.69;99647.70;105007;1271;62255;-27
2022/04/30 08:14:43;;;;;;;1.50;1.00;;;;;;;14.69;30.28;99657.80;104785;1271;75432;-25
2022/04/30 08:17:13;;;;;;;1.30;0.90;;;;;;;15.27;29.10;99656.63;105038;1271;77454;-25
2022/04/30 08:19:41;;;;;;;1.50;0.90;;;;;;;16.04;28.41;99652.25;104856;1271;74263;-26
2022/04/30 08:22:10;;;;;;;2.20;1.00;;;;;;;16.34;27.91;99653.94;104876;1271;61041;-26
2022/04/30 08:24:42;;;;;;;1.80;0.90;;;;;;;14.70;28.60;99650.40;104666;1274;61136;-25
2022/04/30 08:27:10;;;;;;;3.80;1.30;;;;;;;15.48;28.72;99650.95;104755;1274;74494;-25
2022/04/30 08:29:37;;;;;;;2.20;1.10;;;;;;;15.72;28.89;99651.05;104858;1271;76133;-25
2022/04/30 08:32:04;;;;;;;4.50;1.50;;;;;;;15.67;29.57;99655.17;104967;1271;74618;-25
2022/04/30 08:34:32;;;;;;;2.50;1.00;;;;;;;15.67;29.57;99650.03;104734;1271;62022;-25
2022/04/30 08:37:00;;;;;;;2.20;1.00;;;;;;;15.72;28.59;99649.58;104791;1274;61096;-26
2022/04/30 08:39:28;;;;;;;2.60;1.40;;;;;;;16.44;28.62;99655.27;104774;1271;75402;-25
2022/04/30 08:41:55;;;;;;;2.00;1.00;;;;;;;16.90;27.33;99654.68;104765;1273;75962;-25
2022/04/30 08:44:22;;;;;;;2.50;1.00;;;;;;;17.40;27.87;99645.66;104982;1271;74388;-26
2022/04/30 08:46:49;;;;;;;1.80;1.00;;;;;;;16.98;28.26;99648.45;104944;1271;61951;-26
2022/04/30 08:49:16;;;;;;;12.20;1.30;;;;;;;16.30;28.39;99644.14;104780;1271;61159;-26
2022/04/30 08:51:43;;;;;;;1.40;0.80;;;;;;;16.15;28.30;99650.63;104899;1271;75423;-26
2022/04/30 08:54:10;;;;;;;2.50;1.20;;;;;;;16.52;28.10;99648.57;105042;1271;74977;-26
2022/04/30 08:56:37;;;;;;;3.70;1.70;;;;;;;16.30;27.09;99644.19;104929;1271;73379;-26
2022/04/30 08:59:05;;;;;;;3.80;1.10;;;;;;;16.16;27.36;99646.58;104988;1271;61148;-26
2022/04/30 09:01:47;;;;;;;2.10;1.20;;;;;;;16.38;27.32;99645.02;104895;1271;61101;-26
2022/04/30 09:04:14;;;;;;;1.80;1.00;;;;;;;16.64;27.57;99645.31;104812;1271;75509;-26
2022/04/30 09:06:50;;;;;;;2.40;1.00;;;;;;;16.50;26.88;99642.60;104963;1271;75900;-26
2022/04/30 09:09:28;;;;;;;4.50;0.80;;;;;;;16.67;26.91;99643.77;104674;1271;74839;-25
2022/04/30 09:12:05;;;;;;;3.20;1.30;;;;;;;16.88;26.05;99638.21;104783;1271;62090;-25
2022/04/30 09:14:32;;;;;;;1.60;1.10;;;;;;;16.91;24.91;99642.52;104662;1272;61979;-25
2022/04/30 09:17:10;;;;;;;3.60;0.90;;;;;;;17.85;25.07;99636.52;104689;1274;75555;-25
2022/04/30 09:19:56;;;;;;;3.30;1.30;;;;;;;17.92;25.39;99636.30;104811;1271;76164;-26
2022/04/30 09:22:33;;;;;;;1.30;0.80;;;;;;;16.66;25.26;99637.50;105148;1271;74372;-26
2022/04/30 09:25:09;;;;;;;1.70;1.10;;;;;;;17.54;24.61;99628.00;105085;1272;61153;-26
2022/04/30 09:27:56;;;;;;;1.80;0.90;;;;;;;17.89;25.26;99630.46;105054;1271;61109;-26
2022/04/30 09:30:25;;;;;;;2.00;1.00;;;;;;;17.08;26.91;99627.55;105138;1271;75516;-26
2022/04/30 09:33:01;;;;;;;3.50;1.80;;;;;;;17.02;26.62;99631.58;105039;1274;76145;-26
2022/04/30 09:38:15;;;;;;;7.10;1.00;;;;;;;17.11;27.06;99622.86;105064;1271;61137;-26
2022/04/30 09:40:57;;;;;;;1.10;0.80;;;;;;;17.10;25.13;99619.06;104916;1271;61932;-27
2022/04/30 09:43:30;;;;;;;1.60;0.70;;;;;;;17.86;25.63;99612.30;104861;1272;75468;-26
2022/04/30 09:46:08;;;;;;;1.10;0.90;;;;;;;18.35;24.63;99609.42;104676;1272;75896;-26
2022/04/30 09:54:08;;;;;;;2.30;1.60;;;;;;;17.90;25.05;99604.40;104770;1274;61092;-26
2022/04/30 09:56:39;;;;;;;1.30;0.90;;;;;;;17.10;26.14;99610.86;104690;1274;75650;-26
2022/04/30 09:59:08;;;;;;;4.50;1.30;;;;;;;15.96;26.70;99604.48;104866;1271;76028;-26
2022/04/30 10:01:37;;;;;;;2.00;0.90;;;;;;;15.97;26.70;99606.67;104654;1274;74455;-26
2022/04/30 10:04:07;;;;;;;2.40;1.30;;;;;;;15.50;26.94;99602.15;104749;1271;62443;-27
2022/04/30 10:06:45;;;;;;;1.00;0.80;;;;;;;15.40;26.71;99604.48;104800;1271;61256;-26
2022/04/30 10:09:28;;;;;;;3.30;1.40;;;;;;;15.80;27.54;99606.69;104648;1271;74492;-26
2022/04/30 10:11:56;;;;;;;1.40;0.90;;;;;;;16.17;27.63;99610.40;104690;1271;75897;-26
2022/04/30 10:14:51;;;;;;;2.60;0.80;;;;;;;16.16;25.78;99609.41;105062;1271;74215;-26
2022/04/30 10:17:22;;;;;;;2.40;1.00;;;;;;;16.39;27.14;99607.77;105137;1271;61198;-25
2022/04/30 10:20:12;;;;;;;1.70;1.00;;;;;;;16.38;25.45;99606.09;104823;1271;61902;-26
2022/04/30 10:22:51;;;;;;;1.70;0.90;;;;;;;16.13;25.77;99601.30;104796;1271;75680;-26
2022/04/30 10:25:44;;;;;;;5.60;1.50;;;;;;;16.58;26.93;99601.88;104705;1274;75979;-25
2022/04/30 10:28:19;;;;;;;1.50;1.10;;;;;;;15.62;27.82;99595.45;105090;1271;74193;-26
2022/04/30 10:30:57;;;;;;;;;;;;;;;15.75;28.44;99599.62;104815;1274;62119;-26
2022/04/30 10:33:26;;;;;;;1.90;1.00;;;;;;;16.17;27.34;99599.86;104785;1271;61690;-26
2022/04/30 10:36:03;;;;;;;2.40;1.00;;;;;;;15.57;25.86;99592.89;104865;1271;75335;-27
2022/04/30 10:38:32;;;;;;;2.20;1.00;;;;;;;16.45;25.53;99598.98;104765;1271;75816;-27
2022/04/30 10:41:04;;;;;;;1.00;0.80;;;;;;;16.85;24.33;99595.09;104758;1271;74380;-27
2022/04/30 10:43:40;;;;;;;1.00;0.60;;;;;;;16.71;25.82;99589.75;104748;1271;61629;-28
2022/04/30 10:46:17;;;;;;;2.80;1.30;;;;;;;15.87;28.78;99582.73;104897;1271;62451;-26
2022/04/30 10:48:46;;;;;;;2.80;1.00;;;;;;;15.68;29.57;99591.86;105045;1271;75474;-26
2022/04/30 10:51:16;;;;;;;3.00;1.30;;;;;;;15.23;28.79;99591.63;105164;1271;76078;-26
2022/04/30 10:53:46;;;;;;;4.00;0.90;;;;;;;15.35;29.71;99593.36;104983;1271;74366;-27
2022/04/30 10:56:15;;;;;;;3.30;1.10;;;;;;;14.99;30.08;99593.96;105053;1271;61294;-26
2022/04/30 10:58:48;;;;;;;1.90;1.30;;;;;;;15.06;29.82;99592.46;105093;1271;61927;-26
2022/04/30 11:01:19;;;;;;;5.00;1.30;;;;;;;15.35;29.10;99591.98;104959;1271;75685;-26
2022/04/30 11:03:49;;;;;;;2.20;1.00;;;;;;;15.41;27.90;99593.55;104787;1272;75450;-26
2022/04/30 11:06:23;;;;;;;2.00;0.80;;;;;;;15.46;27.30;99591.48;104817;1271;74502;-26
2022/04/30 11:09:04;;;;;;;3.40;0.90;;;;;;;15.19;26.63;99586.95;104752;1271;61988;-26
2022/04/30 11:11:34;;;;;;;2.90;1.00;;;;;;;15.50;27.75;99587.56;104723;1274;61112;-26
2022/04/30 11:14:08;;;;;;;3.20;0.90;;;;;;;15.40;26.85;99586.44;104585;1274;76368;-27
2022/04/30 11:16:41;;;;;;;1.80;1.00;;;;;;;15.60;25.97;99582.66;104638;1274;74607;-27
2022/04/30 11:19:11;;;;;;;3.20;1.20;;;;;;;15.07;26.26;99583.48;105164;1271;73190;-27
2022/04/30 11:21:52;;;;;;;2.30;1.00;;;;;;;15.31;29.43;99581.85;105132;1271;62044;-27
2022/04/30 11:24:31;;;;;;;1.10;0.80;;;;;;;15.51;28.67;99579.08;105149;1271;61005;-27
2022/04/30 11:27:04;;;;;;;2.30;1.20;;;;;;;15.77;27.33;99573.88;105063;1271;75716;-27
2022/04/30 11:29:35;;;;;;;2.80;0.60;;;;;;;15.93;26.55;99575.17;104640;1271;75718;-26
2022/04/30 11:32:05;;;;;;;2.00;1.10;;;;;;;16.84;25.69;99571.13;104709;1271;74185;-26
2022/04/30 11:34:34;;;;;;;1.70;1.10;;;;;;;17.30;25.15;99565.02;104746;1271;61164;-26
2022/04/30 11:37:02;;;;;;;1.50;1.00;;;;;;;16.94;24.63;99562.42;104779;1271;62412;-26
2022/04/30 11:39:31;;;;;;;1.20;0.90;;;;;;;17.14;24.89;99560.60;104902;1271;75326;-27
2022/04/30 11:41:59;;;;;;;2.90;0.80;;;;;;;16.97;24.33;99564.27;104948;1271;75794;-27
2022/04/30 11:44:28;;;;;;;1.90;0.80;;;;;;;16.49;25.08;99560.73;104813;1271;73121;-26
2022/04/30 11:46:57;;;;;;;1.10;0.70;;;;;;;15.89;26.28;99561.19;104935;1271;61204;-27
2022/04/30 11:49:27;;;;;;;1.40;0.60;;;;;;;16.10;25.86;99561.67;105004;1271;61107;-27
2022/04/30 11:52:07;;;;;;;3.40;0.70;;;;;;;16.08;25.50;99559.27;104761;1273;75594;-26
2022/04/30 11:54:38;;;;;;;3.00;1.10;;;;;;;16.45;26.34;99559.86;104775;1272;75003;-26
2022/04/30 11:57:13;;;;;;;1.90;1.00;;;;;;;16.00;27.55;99556.11;105089;1271;74516;-26
2022/04/30 11:59:44;;;;;;;1.70;0.90;;;;;;;15.85;28.11;99552.27;104793;1271;61229;-26
2022/04/30 12:02:15;;;;;;;5.40;3.20;;;;;;;15.83;26.69;99547.58;104875;1271;61109;-26
2022/04/30 12:04:45;;;;;;;9.90;3.40;;;;;;;15.85;27.74;99550.86;104782;1271;73711;-26
2022/04/30 12:07:13;;;;;;;3.90;1.70;;;;;;;15.72;28.01;99548.98;105049;1271;76054;-27
2022/04/30 12:10:01;;;;;;;5.00;1.90;;;;;;;15.65;28.74;99544.89;104839;1271;74550;-27
2022/04/30 12:12:30;;;;;;;2.00;1.00;;;;;;;15.52;26.59;99541.39;104936;1271;60988;-28
2022/04/30 12:15:01;;;;;;;0.80;0.70;;;;;;;15.38;25.08;99538.46;104776;1271;61008;-26
2022/04/30 12:17:31;;;;;;;1.90;0.80;;;;;;;15.49;25.20;99535.41;104970;1271;75273;-27